Philadelphia Wings Airport, PA

6:44 AM EST on November 12, 2019 (GMT -0500)
Philadelphia Wings Airport

Weather History for KLOM - September, 2019

Change the Weather History Date:

Thursday, September 19, 2019

  Actual Average (WUND) Record (WUND)
Temperature  
Mean Temperature 55 °F -  
Max Temperature 69 °F - - (-1)
Min Temperature 41 °F - - (-1)
Degree Days  
Heating Degree Days 10    
Growing Degree Days 5 (Base 50)    
Moisture  
Dew Point 45 °F    
Average Humidity 75    
Maximum Humidity 99    
Minimum Humidity 34    
Precipitation  
Precipitation 0.00 in - - ()
Sea Level Pressure  
Sea Level Pressure 30.33 in    
Wind  
Wind Speed 1 mph (ENE)    
Max Wind Speed 9 mph    
Max Gust Speed -    
Visibility 10 miles    
Events Fog    
Averages and records for this station are not official NWS values.
T = Trace of Precipitation, MM = Missing Value Source: NWS Daily Summary

Daily Weather History Graph

Daily Weather History Graph

Search for Another Location

Airport or City:

Astronomy

Sep. 19, 2019 Rise Set
Actual Time 6:45 AM EDT 7:03 PM EDT
Civil Twilight 6:18 AM EDT 7:30 PM EDT
Nautical Twilight 5:46 AM EDT 8:02 PM EDT
Astronomical Twilight 5:13 AM EDT 8:34 PM EDT
Moon 10:10 PM EDT (9/19) 11:46 AM EDT (9/19)
Length of Visible Light 13h 12m
Length of Day
12h 18m
Waning Gibbous, 74% of the Moon is Illuminated
Sep 19
Waning Gibbous
Sep 21
Last Quarter
Sep 28
New
Oct 5
First Quarter
Oct 13
Full

Hourly Weather History & Observations

Time (EDT) Temp. Windchill Dew Point Humidity Pressure Visibility Wind Dir Wind Speed Gust Speed Precip Events Conditions
12:15 AM 48.9 °F - 48.0 °F 97% 30.31 in 10.0 mi Calm Calm - N/A   Clear
12:35 AM 48.0 °F - 47.3 °F 97% 30.31 in 10.0 mi Calm Calm - N/A   Clear
12:55 AM 48.0 °F - 47.1 °F 97% 30.31 in 10.0 mi Calm Calm - N/A   Clear
1:15 AM 47.3 °F - 46.4 °F 97% 30.32 in 10.0 mi Calm Calm - N/A   Clear
1:35 AM 47.3 °F - 46.8 °F 98% 30.32 in 10.0 mi Calm Calm - N/A   Clear
1:55 AM 46.9 °F - 46.6 °F 99% 30.32 in 10.0 mi Calm Calm - N/A   Clear
2:15 AM 46.4 °F - 45.5 °F 97% 30.31 in 10.0 mi Calm Calm - N/A   Clear
2:35 AM 46.4 °F - 45.9 °F 98% 30.30 in 10.0 mi Calm Calm - N/A   Clear
2:55 AM 46.6 °F - 46.2 °F 99% 30.31 in 10.0 mi East 3.5 mph - N/A   Clear
3:15 AM 44.8 °F 43.3 °F 44.1 °F 97% 30.31 in 10.0 mi East 3.5 mph - N/A   Clear
3:35 AM 46.4 °F 45.2 °F 45.3 °F 96% 30.32 in 10.0 mi ENE 3.5 mph - N/A   Clear
3:55 AM 45.3 °F - 44.6 °F 97% 30.32 in 10.0 mi Calm Calm - N/A   Clear
4:15 AM 45.9 °F 44.6 °F 45.1 °F 97% 30.32 in 10.0 mi ENE 3.5 mph - N/A   Clear
4:35 AM 45.1 °F - 44.4 °F 97% 30.33 in 10.0 mi Calm Calm - N/A   Clear
4:55 AM 43.7 °F - 43.2 °F 98% 30.33 in 10.0 mi Calm Calm - N/A   Clear
5:15 AM 43.5 °F - 43.2 °F 99% 30.33 in 7.0 mi Calm Calm - N/A   Clear
5:35 AM 42.4 °F - 41.9 °F 98% 30.32 in 10.0 mi Calm Calm - N/A   Clear
5:55 AM 41.9 °F - 41.0 °F 97% 30.33 in 7.0 mi Calm Calm - N/A   Clear
6:15 AM 41.5 °F - 40.8 °F 97% 30.34 in 10.0 mi Calm Calm - N/A   Clear
6:35 AM 42.1 °F - 41.9 °F 99% 30.34 in 3.5 mi Calm Calm - N/A   Clear
6:55 AM 41.2 °F - 40.8 °F 99% 30.35 in 0.2 mi Calm Calm - N/A Fog Fog
7:15 AM 42.3 °F - 42.1 °F 99% 30.35 in 1.0 mi Calm Calm - N/A   Mist
7:35 AM 45.1 °F - 45.0 °F 99% 30.35 in 10.0 mi Calm Calm - N/A   Clear
7:55 AM 48.4 °F - 47.1 °F 95% 30.36 in 10.0 mi Calm Calm - N/A   Clear
8:15 AM 51.6 °F - 48.6 °F 89% 30.37 in 10.0 mi Calm Calm - N/A   Clear
8:35 AM 53.6 °F - 48.0 °F 81% 30.37 in 10.0 mi Calm Calm - N/A   Clear
8:55 AM 55.4 °F - 48.0 °F 76% 30.37 in 10.0 mi Calm Calm - N/A   Clear
9:15 AM 56.5 °F - 47.3 °F 71% 30.37 in 10.0 mi ENE 5.8 mph - N/A   Clear
9:35 AM 58.1 °F - 46.0 °F 64% 30.38 in 10.0 mi East 9.2 mph - N/A   Clear
9:55 AM 59.2 °F - 44.4 °F 58% 30.38 in 10.0 mi ENE 6.9 mph - N/A   Clear
10:15 AM 59.7 °F - 42.8 °F 54% 30.38 in 10.0 mi ENE 6.9 mph - N/A   Clear
10:35 AM 61.2 °F - 43.7 °F 53% 30.38 in 10.0 mi North 4.6 mph - N/A   Clear
10:55 AM 61.9 °F - 42.1 °F 48% 30.37 in 10.0 mi East 5.8 mph - N/A   Clear
11:15 AM 62.2 °F - 42.3 °F 48% 30.37 in 10.0 mi NNE 3.5 mph - N/A   Clear
11:35 AM 62.8 °F - 42.3 °F 47% 30.37 in 10.0 mi East 5.8 mph - N/A   Clear
11:55 AM 63.5 °F - 42.1 °F 46% 30.37 in 10.0 mi ENE 5.8 mph - N/A   Clear
12:15 PM 64.6 °F - 42.3 °F 44% 30.36 in 10.0 mi NNE 3.5 mph - N/A   Clear
12:35 PM 65.5 °F - 41.9 °F 42% 30.36 in 10.0 mi ENE 6.9 mph - N/A   Clear
12:55 PM 65.5 °F - 41.2 °F 41% 30.35 in 10.0 mi East 4.6 mph - N/A   Clear
1:15 PM 66.2 °F - 41.2 °F 40% 30.34 in 10.0 mi Calm Calm - N/A   Clear
1:35 PM 66.4 °F - 40.6 °F 39% 30.34 in 10.0 mi WSW 4.6 mph - N/A   Clear
1:50 PM 68.0 °F - 43.3 °F 41% 30.34 in 10.0 mi West 5.8 mph - N/A   Clear
2:15 PM 67.8 °F - 42.6 °F 40% 30.33 in 10.0 mi West 4.6 mph - N/A   Clear
2:35 PM 68.2 °F - 43.2 °F 40% 30.33 in 10.0 mi Calm Calm - N/A   Clear
2:55 PM 68.0 °F - 43.2 °F 41% 30.32 in 10.0 mi Calm Calm - N/A   Clear
3:15 PM 69.1 °F - 43.7 °F 40% 30.32 in 10.0 mi SSE 8.1 mph - N/A   Clear
3:35 PM 68.9 °F - 43.0 °F 39% 30.31 in 10.0 mi Calm Calm - N/A   Clear
3:55 PM 69.1 °F - 41.2 °F 36% 30.31 in 10.0 mi Calm Calm - N/A   Clear
4:15 PM 68.9 °F - 39.6 °F 34% 30.31 in 10.0 mi Calm Calm - N/A   Clear
4:35 PM 69.3 °F - 42.3 °F 38% 30.31 in 10.0 mi Calm Calm - N/A   Clear
4:55 PM 69.8 °F - 41.0 °F 35% 30.30 in 10.0 mi Calm Calm - N/A   Clear
5:15 PM 68.7 °F - 41.2 °F 37% 30.30 in 10.0 mi Calm Calm - N/A   Clear
5:35 PM 68.7 °F - 43.0 °F 39% 30.30 in 10.0 mi Calm Calm - N/A   Clear
5:55 PM 68.0 °F - 43.2 °F 41% 30.30 in 10.0 mi Calm Calm - N/A   Clear
6:15 PM 66.9 °F - 45.3 °F 46% 30.30 in 10.0 mi SE 3.5 mph - N/A   Clear
6:35 PM 61.0 °F - 53.2 °F 76% 30.30 in 10.0 mi Calm Calm - N/A   Clear
6:55 PM 57.0 °F - 52.5 °F 85% 30.31 in 10.0 mi Calm Calm - N/A   Clear
7:15 PM 54.5 °F - 50.7 °F 87% 30.30 in 10.0 mi Calm Calm - N/A   Clear
7:35 PM 53.1 °F - 49.6 °F 88% 30.30 in 10.0 mi Calm Calm - N/A   Clear
7:55 PM 51.6 °F - 48.4 °F 89% 30.30 in 10.0 mi Calm Calm - N/A   Clear
8:15 PM 51.1 °F - 48.6 °F 91% 30.29 in 10.0 mi Calm Calm - N/A   Clear
8:35 PM 49.3 °F - 46.9 °F 92% 30.30 in 10.0 mi Calm Calm - N/A   Clear
8:55 PM 48.6 °F - 47.1 °F 95% 30.30 in 10.0 mi Calm Calm - N/A   Clear
9:15 PM 48.0 °F - 46.2 °F 93% 30.30 in 10.0 mi Calm Calm - N/A   Clear
9:35 PM 48.4 °F - 46.6 °F 93% 30.30 in 10.0 mi Calm Calm - N/A   Clear
9:55 PM 46.8 °F - 45.0 °F 93% 30.30 in 10.0 mi Calm Calm - N/A   Clear
10:15 PM 46.6 °F - 45.0 °F 94% 30.30 in 10.0 mi Calm Calm - N/A   Clear
10:35 PM 45.9 °F - 44.6 °F 95% 30.30 in 10.0 mi Calm Calm - N/A   Clear
10:55 PM 46.4 °F - 45.1 °F 95% 30.30 in 10.0 mi Calm Calm - N/A   Clear
11:15 PM 45.1 °F - 43.9 °F 95% 30.30 in 10.0 mi Calm Calm - N/A   Clear
11:35 PM 45.5 °F - 44.8 °F 97% 30.30 in 10.0 mi Calm Calm - N/A   Clear
11:55 PM 45.0 °F - 44.1 °F 97% 30.30 in 10.0 mi Calm Calm - N/A   Clear